sensor_id;sensor_type;location;lat;lon;timestamp;P1;durP1;ratioP1;P2;durP2;ratioP2
13651;SDS011;6899;51.546;6.912;2023-02-26T00:02:28;5.67;;;2.80;;
13651;SDS011;6899;51.546;6.912;2023-02-26T00:04:54;7.50;;;2.93;;
13651;SDS011;6899;51.546;6.912;2023-02-26T00:07:21;4.20;;;3.00;;
13651;SDS011;6899;51.546;6.912;2023-02-26T00:09:53;7.77;;;2.97;;
13651;SDS011;6899;51.546;6.912;2023-02-26T00:12:20;7.67;;;3.30;;
13651;SDS011;6899;51.546;6.912;2023-02-26T00:14:47;5.33;;;3.20;;
13651;SDS011;6899;51.546;6.912;2023-02-26T00:17:32;6.20;;;3.17;;
13651;SDS011;6899;51.546;6.912;2023-02-26T00:20:07;9.93;;;3.30;;
13651;SDS011;6899;51.546;6.912;2023-02-26T00:22:36;7.07;;;3.50;;
13651;SDS011;6899;51.546;6.912;2023-02-26T00:25:04;10.17;;;3.60;;
13651;SDS011;6899;51.546;6.912;2023-02-26T00:27:31;8.27;;;4.20;;
13651;SDS011;6899;51.546;6.912;2023-02-26T00:29:58;11.17;;;4.80;;
13651;SDS011;6899;51.546;6.912;2023-02-26T00:32:26;7.47;;;3.77;;
13651;SDS011;6899;51.546;6.912;2023-02-26T00:34:55;11.07;;;4.27;;
13651;SDS011;6899;51.546;6.912;2023-02-26T00:37:26;7.37;;;3.47;;
13651;SDS011;6899;51.546;6.912;2023-02-26T00:40:07;5.70;;;3.00;;
13651;SDS011;6899;51.546;6.912;2023-02-26T00:42:41;9.53;;;3.87;;
13651;SDS011;6899;51.546;6.912;2023-02-26T00:45:09;7.10;;;3.87;;
13651;SDS011;6899;51.546;6.912;2023-02-26T00:47:39;9.20;;;3.60;;
13651;SDS011;6899;51.546;6.912;2023-02-26T00:50:17;5.20;;;3.67;;
13651;SDS011;6899;51.546;6.912;2023-02-26T00:52:48;8.60;;;3.50;;
13651;SDS011;6899;51.546;6.912;2023-02-26T00:55:28;6.23;;;4.03;;
13651;SDS011;6899;51.546;6.912;2023-02-26T00:57:55;6.43;;;3.33;;
13651;SDS011;6899;51.546;6.912;2023-02-26T01:00:22;13.37;;;4.70;;
13651;SDS011;6899;51.546;6.912;2023-02-26T01:02:49;3.87;;;3.03;;
13651;SDS011;6899;51.546;6.912;2023-02-26T01:05:19;7.83;;;4.00;;
13651;SDS011;6899;51.546;6.912;2023-02-26T01:07:49;10.13;;;3.00;;
13651;SDS011;6899;51.546;6.912;2023-02-26T01:10:23;5.70;;;3.30;;
13651;SDS011;6899;51.546;6.912;2023-02-26T01:12:51;6.20;;;3.47;;
13651;SDS011;6899;51.546;6.912;2023-02-26T01:15:18;5.57;;;3.63;;
13651;SDS011;6899;51.546;6.912;2023-02-26T01:17:46;9.87;;;3.50;;
13651;SDS011;6899;51.546;6.912;2023-02-26T01:20:24;7.47;;;3.30;;
13651;SDS011;6899;51.546;6.912;2023-02-26T01:22:56;8.73;;;3.10;;
13651;SDS011;6899;51.546;6.912;2023-02-26T01:25:28;6.17;;;3.70;;
13651;SDS011;6899;51.546;6.912;2023-02-26T01:28:01;4.77;;;2.90;;
13651;SDS011;6899;51.546;6.912;2023-02-26T01:30:29;4.60;;;2.57;;
13651;SDS011;6899;51.546;6.912;2023-02-26T01:32:57;4.87;;;2.90;;
13651;SDS011;6899;51.546;6.912;2023-02-26T01:35:36;4.30;;;3.37;;
13651;SDS011;6899;51.546;6.912;2023-02-26T01:38:10;6.50;;;2.80;;
13651;SDS011;6899;51.546;6.912;2023-02-26T01:44:03;3.80;;;2.80;;
13651;SDS011;6899;51.546;6.912;2023-02-26T01:46:43;8.87;;;3.43;;
13651;SDS011;6899;51.546;6.912;2023-02-26T01:49:20;5.47;;;2.90;;
13651;SDS011;6899;51.546;6.912;2023-02-26T01:51:49;4.70;;;2.70;;
13651;SDS011;6899;51.546;6.912;2023-02-26T01:54:18;7.33;;;3.03;;
13651;SDS011;6899;51.546;6.912;2023-02-26T01:56:47;6.80;;;3.03;;
13651;SDS011;6899;51.546;6.912;2023-02-26T01:59:17;7.83;;;2.97;;
13651;SDS011;6899;51.546;6.912;2023-02-26T02:01:48;8.27;;;2.80;;
13651;SDS011;6899;51.546;6.912;2023-02-26T02:04:15;7.83;;;3.70;;
13651;SDS011;6899;51.546;6.912;2023-02-26T02:06:42;6.10;;;3.27;;
13651;SDS011;6899;51.546;6.912;2023-02-26T02:09:11;6.93;;;3.13;;
13651;SDS011;6899;51.546;6.912;2023-02-26T02:11:39;6.03;;;3.03;;
13651;SDS011;6899;51.546;6.912;2023-02-26T02:14:20;5.77;;;2.73;;
13651;SDS011;6899;51.546;6.912;2023-02-26T02:16:55;10.43;;;3.03;;
13651;SDS011;6899;51.546;6.912;2023-02-26T02:19:32;8.40;;;3.27;;
13651;SDS011;6899;51.546;6.912;2023-02-26T02:22:26;5.80;;;2.60;;
13651;SDS011;6899;51.546;6.912;2023-02-26T02:25:25;7.63;;;2.60;;
13651;SDS011;6899;51.546;6.912;2023-02-26T02:28:11;6.67;;;2.77;;
13651;SDS011;6899;51.546;6.912;2023-02-26T02:33:40;6.57;;;2.50;;
13651;SDS011;6899;51.546;6.912;2023-02-26T02:36:16;6.07;;;2.80;;
13651;SDS011;6899;51.546;6.912;2023-02-26T02:38:51;5.77;;;2.40;;
13651;SDS011;6899;51.546;6.912;2023-02-26T02:41:23;7.07;;;2.90;;
13651;SDS011;6899;51.546;6.912;2023-02-26T02:44:03;2.37;;;2.13;;
13651;SDS011;6899;51.546;6.912;2023-02-26T02:46:36;6.57;;;2.37;;
13651;SDS011;6899;51.546;6.912;2023-02-26T02:49:06;6.90;;;2.63;;
13651;SDS011;6899;51.546;6.912;2023-02-26T02:51:43;5.53;;;3.07;;
13651;SDS011;6899;51.546;6.912;2023-02-26T02:54:25;6.07;;;2.20;;
13651;SDS011;6899;51.546;6.912;2023-02-26T02:57:12;3.70;;;2.43;;
13651;SDS011;6899;51.546;6.912;2023-02-26T02:59:54;5.63;;;2.53;;
13651;SDS011;6899;51.546;6.912;2023-02-26T03:02:48;4.20;;;2.43;;
13651;SDS011;6899;51.546;6.912;2023-02-26T03:05:18;3.83;;;2.27;;
13651;SDS011;6899;51.546;6.912;2023-02-26T03:07:46;6.27;;;2.33;;
13651;SDS011;6899;51.546;6.912;2023-02-26T03:10:15;2.83;;;2.07;;
13651;SDS011;6899;51.546;6.912;2023-02-26T03:12:42;4.17;;;2.40;;
13651;SDS011;6899;51.546;6.912;2023-02-26T03:15:10;4.73;;;2.70;;
13651;SDS011;6899;51.546;6.912;2023-02-26T03:17:39;3.23;;;2.17;;
13651;SDS011;6899;51.546;6.912;2023-02-26T03:20:18;6.63;;;2.93;;
13651;SDS011;6899;51.546;6.912;2023-02-26T03:22:50;2.90;;;2.30;;
13651;SDS011;6899;51.546;6.912;2023-02-26T03:25:26;7.77;;;3.20;;
13651;SDS011;6899;51.546;6.912;2023-02-26T03:28:03;6.37;;;2.53;;
13651;SDS011;6899;51.546;6.912;2023-02-26T03:30:37;3.60;;;2.13;;
13651;SDS011;6899;51.546;6.912;2023-02-26T03:33:09;4.60;;;2.17;;
13651;SDS011;6899;51.546;6.912;2023-02-26T03:35:44;5.17;;;2.30;;
13651;SDS011;6899;51.546;6.912;2023-02-26T03:38:16;3.33;;;2.17;;
13651;SDS011;6899;51.546;6.912;2023-02-26T03:40:49;3.20;;;2.07;;
13651;SDS011;6899;51.546;6.912;2023-02-26T03:43:21;5.63;;;2.20;;
13651;SDS011;6899;51.546;6.912;2023-02-26T03:45:51;3.83;;;2.10;;
13651;SDS011;6899;51.546;6.912;2023-02-26T03:48:23;3.63;;;2.17;;
13651;SDS011;6899;51.546;6.912;2023-02-26T03:50:56;3.00;;;1.80;;
13651;SDS011;6899;51.546;6.912;2023-02-26T03:53:25;5.60;;;2.33;;
13651;SDS011;6899;51.546;6.912;2023-02-26T03:56:05;5.77;;;2.07;;
13651;SDS011;6899;51.546;6.912;2023-02-26T03:58:36;6.80;;;2.00;;
13651;SDS011;6899;51.546;6.912;2023-02-26T04:01:06;8.00;;;2.40;;
13651;SDS011;6899;51.546;6.912;2023-02-26T04:03:43;5.97;;;2.43;;
13651;SDS011;6899;51.546;6.912;2023-02-26T04:06:14;7.07;;;2.40;;
13651;SDS011;6899;51.546;6.912;2023-02-26T04:08:41;12.53;;;2.80;;
13651;SDS011;6899;51.546;6.912;2023-02-26T04:11:15;4.90;;;2.40;;
13651;SDS011;6899;51.546;6.912;2023-02-26T04:13:44;3.93;;;2.10;;
13651;SDS011;6899;51.546;6.912;2023-02-26T04:16:12;2.97;;;2.20;;
13651;SDS011;6899;51.546;6.912;2023-02-26T04:18:39;5.50;;;2.27;;
13651;SDS011;6899;51.546;6.912;2023-02-26T04:21:06;5.43;;;2.50;;
13651;SDS011;6899;51.546;6.912;2023-02-26T04:23:38;5.37;;;2.17;;
13651;SDS011;6899;51.546;6.912;2023-02-26T04:26:04;3.60;;;1.87;;
13651;SDS011;6899;51.546;6.912;2023-02-26T04:28:31;5.47;;;2.20;;
13651;SDS011;6899;51.546;6.912;2023-02-26T04:30:59;6.87;;;2.27;;
13651;SDS011;6899;51.546;6.912;2023-02-26T04:33:26;4.10;;;2.00;;
13651;SDS011;6899;51.546;6.912;2023-02-26T04:35:52;6.23;;;2.47;;
13651;SDS011;6899;51.546;6.912;2023-02-26T04:38:19;2.37;;;2.07;;
13651;SDS011;6899;51.546;6.912;2023-02-26T04:40:47;5.50;;;2.03;;
13651;SDS011;6899;51.546;6.912;2023-02-26T04:43:14;3.50;;;2.00;;
13651;SDS011;6899;51.546;6.912;2023-02-26T04:45:41;9.00;;;2.30;;
13651;SDS011;6899;51.546;6.912;2023-02-26T04:48:13;5.43;;;2.17;;
13651;SDS011;6899;51.546;6.912;2023-02-26T04:50:40;6.23;;;2.40;;
13651;SDS011;6899;51.546;6.912;2023-02-26T04:53:07;7.43;;;2.10;;
13651;SDS011;6899;51.546;6.912;2023-02-26T04:55:34;3.70;;;1.90;;
13651;SDS011;6899;51.546;6.912;2023-02-26T04:58:03;4.67;;;2.63;;
13651;SDS011;6899;51.546;6.912;2023-02-26T05:00:30;3.67;;;2.00;;
13651;SDS011;6899;51.546;6.912;2023-02-26T05:02:56;4.37;;;2.27;;
13651;SDS011;6899;51.546;6.912;2023-02-26T05:05:23;5.70;;;2.53;;
13651;SDS011;6899;51.546;6.912;2023-02-26T05:07:50;2.97;;;1.90;;
13651;SDS011;6899;51.546;6.912;2023-02-26T05:10:20;4.07;;;2.60;;
13651;SDS011;6899;51.546;6.912;2023-02-26T05:12:47;7.63;;;2.27;;
13651;SDS011;6899;51.546;6.912;2023-02-26T05:15:16;3.37;;;1.87;;
13651;SDS011;6899;51.546;6.912;2023-02-26T05:17:43;4.80;;;2.43;;
13651;SDS011;6899;51.546;6.912;2023-02-26T05:20:10;4.90;;;1.80;;
13651;SDS011;6899;51.546;6.912;2023-02-26T05:22:39;3.83;;;2.37;;
13651;SDS011;6899;51.546;6.912;2023-02-26T05:25:07;5.83;;;1.97;;
13651;SDS011;6899;51.546;6.912;2023-02-26T05:27:35;4.10;;;2.00;;
13651;SDS011;6899;51.546;6.912;2023-02-26T05:30:05;3.07;;;1.80;;
13651;SDS011;6899;51.546;6.912;2023-02-26T05:32:34;4.87;;;1.90;;
13651;SDS011;6899;51.546;6.912;2023-02-26T05:35:01;8.93;;;2.20;;
13651;SDS011;6899;51.546;6.912;2023-02-26T05:37:29;3.20;;;2.17;;
13651;SDS011;6899;51.546;6.912;2023-02-26T05:39:55;5.70;;;1.90;;
13651;SDS011;6899;51.546;6.912;2023-02-26T05:42:22;5.37;;;1.90;;
13651;SDS011;6899;51.546;6.912;2023-02-26T05:44:50;6.63;;;1.97;;
13651;SDS011;6899;51.546;6.912;2023-02-26T05:47:16;3.50;;;2.20;;
13651;SDS011;6899;51.546;6.912;2023-02-26T05:49:45;3.77;;;1.97;;
13651;SDS011;6899;51.546;6.912;2023-02-26T05:52:11;5.93;;;1.80;;
13651;SDS011;6899;51.546;6.912;2023-02-26T05:54:41;7.10;;;3.07;;
13651;SDS011;6899;51.546;6.912;2023-02-26T05:57:07;4.70;;;2.47;;
13651;SDS011;6899;51.546;6.912;2023-02-26T05:59:34;4.53;;;1.93;;
13651;SDS011;6899;51.546;6.912;2023-02-26T06:02:02;6.03;;;1.93;;
13651;SDS011;6899;51.546;6.912;2023-02-26T06:04:32;3.07;;;1.77;;
13651;SDS011;6899;51.546;6.912;2023-02-26T06:07:01;2.83;;;1.93;;
13651;SDS011;6899;51.546;6.912;2023-02-26T06:09:28;4.03;;;1.77;;
13651;SDS011;6899;51.546;6.912;2023-02-26T06:11:55;6.70;;;1.90;;
13651;SDS011;6899;51.546;6.912;2023-02-26T06:14:21;6.10;;;1.93;;
13651;SDS011;6899;51.546;6.912;2023-02-26T06:16:48;7.23;;;2.30;;
13651;SDS011;6899;51.546;6.912;2023-02-26T06:19:15;5.47;;;1.80;;
13651;SDS011;6899;51.546;6.912;2023-02-26T06:21:42;4.00;;;2.10;;
13651;SDS011;6899;51.546;6.912;2023-02-26T06:24:10;9.57;;;2.50;;
13651;SDS011;6899;51.546;6.912;2023-02-26T06:26:37;7.00;;;1.90;;
13651;SDS011;6899;51.546;6.912;2023-02-26T06:29:06;10.43;;;2.47;;
13651;SDS011;6899;51.546;6.912;2023-02-26T06:31:33;7.30;;;4.20;;
13651;SDS011;6899;51.546;6.912;2023-02-26T06:34:00;5.63;;;1.97;;
13651;SDS011;6899;51.546;6.912;2023-02-26T06:36:27;6.00;;;2.30;;
13651;SDS011;6899;51.546;6.912;2023-02-26T06:38:54;4.37;;;1.80;;
13651;SDS011;6899;51.546;6.912;2023-02-26T06:41:22;5.87;;;2.43;;
13651;SDS011;6899;51.546;6.912;2023-02-26T06:43:49;5.83;;;2.03;;
13651;SDS011;6899;51.546;6.912;2023-02-26T06:46:16;6.40;;;2.27;;
13651;SDS011;6899;51.546;6.912;2023-02-26T06:48:42;4.33;;;1.73;;
13651;SDS011;6899;51.546;6.912;2023-02-26T06:51:09;10.17;;;2.17;;
13651;SDS011;6899;51.546;6.912;2023-02-26T06:53:36;3.77;;;1.93;;
13651;SDS011;6899;51.546;6.912;2023-02-26T06:56:08;3.87;;;2.37;;
13651;SDS011;6899;51.546;6.912;2023-02-26T06:58:36;7.73;;;2.10;;
13651;SDS011;6899;51.546;6.912;2023-02-26T07:01:03;5.20;;;2.10;;
13651;SDS011;6899;51.546;6.912;2023-02-26T07:03:30;4.87;;;1.83;;
13651;SDS011;6899;51.546;6.912;2023-02-26T07:05:57;6.23;;;2.20;;
13651;SDS011;6899;51.546;6.912;2023-02-26T07:08:24;7.73;;;2.53;;
13651;SDS011;6899;51.546;6.912;2023-02-26T07:10:51;5.97;;;2.27;;
13651;SDS011;6899;51.546;6.912;2023-02-26T07:13:18;6.13;;;2.70;;
13651;SDS011;6899;51.546;6.912;2023-02-26T07:15:46;7.83;;;2.63;;
13651;SDS011;6899;51.546;6.912;2023-02-26T07:18:12;5.60;;;2.50;;
13651;SDS011;6899;51.546;6.912;2023-02-26T07:20:40;5.50;;;2.37;;
13651;SDS011;6899;51.546;6.912;2023-02-26T07:23:07;4.47;;;2.37;;
13651;SDS011;6899;51.546;6.912;2023-02-26T07:25:34;4.50;;;2.50;;
13651;SDS011;6899;51.546;6.912;2023-02-26T07:28:01;3.57;;;2.70;;
13651;SDS011;6899;51.546;6.912;2023-02-26T07:30:28;5.47;;;2.30;;
13651;SDS011;6899;51.546;6.912;2023-02-26T07:32:56;4.20;;;2.10;;
13651;SDS011;6899;51.546;6.912;2023-02-26T07:35:23;6.03;;;2.27;;
13651;SDS011;6899;51.546;6.912;2023-02-26T07:37:50;5.70;;;2.30;;
13651;SDS011;6899;51.546;6.912;2023-02-26T07:40:17;5.00;;;2.30;;
13651;SDS011;6899;51.546;6.912;2023-02-26T07:42:44;6.03;;;2.20;;
13651;SDS011;6899;51.546;6.912;2023-02-26T07:45:11;5.77;;;2.20;;
13651;SDS011;6899;51.546;6.912;2023-02-26T07:47:38;7.43;;;2.33;;
13651;SDS011;6899;51.546;6.912;2023-02-26T07:50:06;6.57;;;1.70;;
13651;SDS011;6899;51.546;6.912;2023-02-26T07:52:34;5.03;;;2.20;;
13651;SDS011;6899;51.546;6.912;2023-02-26T07:55:01;6.93;;;2.97;;
13651;SDS011;6899;51.546;6.912;2023-02-26T07:57:28;5.13;;;2.30;;
13651;SDS011;6899;51.546;6.912;2023-02-26T07:59:55;5.27;;;2.13;;
13651;SDS011;6899;51.546;6.912;2023-02-26T08:02:24;3.17;;;1.90;;
13651;SDS011;6899;51.546;6.912;2023-02-26T08:04:51;3.77;;;1.90;;
13651;SDS011;6899;51.546;6.912;2023-02-26T08:07:20;4.57;;;1.83;;
13651;SDS011;6899;51.546;6.912;2023-02-26T08:09:46;6.33;;;1.87;;
13651;SDS011;6899;51.546;6.912;2023-02-26T08:12:13;6.73;;;2.20;;
13651;SDS011;6899;51.546;6.912;2023-02-26T08:14:40;3.40;;;1.90;;
13651;SDS011;6899;51.546;6.912;2023-02-26T08:17:07;3.53;;;1.77;;
13651;SDS011;6899;51.546;6.912;2023-02-26T08:19:35;5.67;;;2.23;;
13651;SDS011;6899;51.546;6.912;2023-02-26T08:22:02;10.70;;;2.23;;
13651;SDS011;6899;51.546;6.912;2023-02-26T08:24:30;2.97;;;2.00;;
13651;SDS011;6899;51.546;6.912;2023-02-26T08:26:57;4.27;;;2.40;;
13651;SDS011;6899;51.546;6.912;2023-02-26T08:29:24;2.87;;;1.80;;
13651;SDS011;6899;51.546;6.912;2023-02-26T08:31:50;8.00;;;2.43;;
13651;SDS011;6899;51.546;6.912;2023-02-26T08:34:20;4.33;;;2.00;;
13651;SDS011;6899;51.546;6.912;2023-02-26T08:36:47;10.70;;;2.10;;
13651;SDS011;6899;51.546;6.912;2023-02-26T08:39:14;5.00;;;1.80;;
13651;SDS011;6899;51.546;6.912;2023-02-26T08:41:42;2.50;;;1.77;;
13651;SDS011;6899;51.546;6.912;2023-02-26T08:44:09;5.00;;;1.63;;
13651;SDS011;6899;51.546;6.912;2023-02-26T08:46:36;4.77;;;1.60;;
13651;SDS011;6899;51.546;6.912;2023-02-26T08:49:03;2.70;;;1.67;;
13651;SDS011;6899;51.546;6.912;2023-02-26T08:51:32;4.90;;;1.80;;
13651;SDS011;6899;51.546;6.912;2023-02-26T08:53:59;4.43;;;1.70;;
13651;SDS011;6899;51.546;6.912;2023-02-26T08:56:26;6.57;;;1.93;;
13651;SDS011;6899;51.546;6.912;2023-02-26T08:58:54;4.93;;;1.53;;
13651;SDS011;6899;51.546;6.912;2023-02-26T09:01:21;6.17;;;2.40;;
13651;SDS011;6899;51.546;6.912;2023-02-26T09:03:50;4.30;;;1.80;;
13651;SDS011;6899;51.546;6.912;2023-02-26T09:06:17;5.43;;;1.20;;
13651;SDS011;6899;51.546;6.912;2023-02-26T09:08:44;3.07;;;1.50;;
13651;SDS011;6899;51.546;6.912;2023-02-26T09:11:10;4.23;;;1.30;;
13651;SDS011;6899;51.546;6.912;2023-02-26T09:13:40;2.83;;;1.50;;
13651;SDS011;6899;51.546;6.912;2023-02-26T09:16:08;3.73;;;1.50;;
13651;SDS011;6899;51.546;6.912;2023-02-26T09:18:35;3.03;;;1.10;;
13651;SDS011;6899;51.546;6.912;2023-02-26T09:21:02;3.97;;;1.60;;
13651;SDS011;6899;51.546;6.912;2023-02-26T09:23:29;3.63;;;1.43;;
13651;SDS011;6899;51.546;6.912;2023-02-26T09:25:56;3.00;;;1.33;;
13651;SDS011;6899;51.546;6.912;2023-02-26T09:28:24;3.30;;;1.63;;
13651;SDS011;6899;51.546;6.912;2023-02-26T09:30:51;5.37;;;1.10;;
13651;SDS011;6899;51.546;6.912;2023-02-26T09:33:19;3.27;;;1.33;;
13651;SDS011;6899;51.546;6.912;2023-02-26T09:35:47;3.22;;;1.30;;
13651;SDS011;6899;51.546;6.912;2023-02-26T09:38:14;5.60;;;1.52;;
13651;SDS011;6899;51.546;6.912;2023-02-26T09:40:42;5.05;;;1.60;;
13651;SDS011;6899;51.546;6.912;2023-02-26T09:43:20;4.25;;;1.30;;
13651;SDS011;6899;51.546;6.912;2023-02-26T09:46:01;3.15;;;1.00;;
13651;SDS011;6899;51.546;6.912;2023-02-26T09:48:32;3.30;;;1.50;;
13651;SDS011;6899;51.546;6.912;2023-02-26T09:51:02;2.08;;;1.20;;
13651;SDS011;6899;51.546;6.912;2023-02-26T09:53:31;2.10;;;1.10;;
13651;SDS011;6899;51.546;6.912;2023-02-26T09:56:03;1.77;;;0.88;;
13651;SDS011;6899;51.546;6.912;2023-02-26T09:58:33;1.20;;;1.00;;
13651;SDS011;6899;51.546;6.912;2023-02-26T10:01:03;5.97;;;1.63;;
13651;SDS011;6899;51.546;6.912;2023-02-26T10:03:38;2.23;;;1.30;;
13651;SDS011;6899;51.546;6.912;2023-02-26T10:06:20;3.07;;;1.00;;
13651;SDS011;6899;51.546;6.912;2023-02-26T10:08:55;2.37;;;1.13;;
13651;SDS011;6899;51.546;6.912;2023-02-26T10:11:42;3.40;;;1.23;;
13651;SDS011;6899;51.546;6.912;2023-02-26T10:14:15;6.87;;;1.40;;
13651;SDS011;6899;51.546;6.912;2023-02-26T10:16:48;2.23;;;1.13;;
13651;SDS011;6899;51.546;6.912;2023-02-26T10:19:22;2.75;;;0.93;;
13651;SDS011;6899;51.546;6.912;2023-02-26T10:21:53;3.87;;;1.00;;
13651;SDS011;6899;51.546;6.912;2023-02-26T10:24:25;4.20;;;1.17;;
13651;SDS011;6899;51.546;6.912;2023-02-26T10:27:10;4.33;;;1.50;;
13651;SDS011;6899;51.546;6.912;2023-02-26T10:29:42;5.27;;;1.10;;
13651;SDS011;6899;51.546;6.912;2023-02-26T10:32:23;6.30;;;1.20;;
13651;SDS011;6899;51.546;6.912;2023-02-26T10:34:59;2.00;;;1.10;;
13651;SDS011;6899;51.546;6.912;2023-02-26T10:37:33;2.70;;;1.13;;
13651;SDS011;6899;51.546;6.912;2023-02-26T10:40:09;3.97;;;1.20;;
13651;SDS011;6899;51.546;6.912;2023-02-26T10:42:41;3.33;;;1.20;;
13651;SDS011;6899;51.546;6.912;2023-02-26T10:45:16;3.70;;;1.13;;
13651;SDS011;6899;51.546;6.912;2023-02-26T10:47:52;1.77;;;1.00;;
13651;SDS011;6899;51.546;6.912;2023-02-26T10:50:28;3.93;;;1.43;;
13651;SDS011;6899;51.546;6.912;2023-02-26T10:52:55;4.30;;;1.43;;
13651;SDS011;6899;51.546;6.912;2023-02-26T10:55:33;4.53;;;1.47;;
13651;SDS011;6899;51.546;6.912;2023-02-26T10:58:09;3.70;;;1.63;;
13651;SDS011;6899;51.546;6.912;2023-02-26T11:00:38;2.27;;;1.07;;
13651;SDS011;6899;51.546;6.912;2023-02-26T11:03:07;3.17;;;0.97;;
13651;SDS011;6899;51.546;6.912;2023-02-26T11:05:39;2.15;;;0.90;;
13651;SDS011;6899;51.546;6.912;2023-02-26T11:08:08;3.65;;;1.40;;
13651;SDS011;6899;51.546;6.912;2023-02-26T11:10:41;2.00;;;1.05;;
13651;SDS011;6899;51.546;6.912;2023-02-26T11:13:15;1.33;;;1.00;;
13651;SDS011;6899;51.546;6.912;2023-02-26T11:15:42;1.67;;;0.77;;
13651;SDS011;6899;51.546;6.912;2023-02-26T11:18:14;3.28;;;1.20;;
13651;SDS011;6899;51.546;6.912;2023-02-26T11:20:47;2.45;;;1.10;;
13651;SDS011;6899;51.546;6.912;2023-02-26T11:23:15;4.07;;;1.38;;
13651;SDS011;6899;51.546;6.912;2023-02-26T11:25:45;2.70;;;1.10;;
13651;SDS011;6899;51.546;6.912;2023-02-26T11:28:20;4.10;;;1.30;;
13651;SDS011;6899;51.546;6.912;2023-02-26T11:30:49;1.80;;;0.90;;
13651;SDS011;6899;51.546;6.912;2023-02-26T11:33:21;2.67;;;1.10;;
13651;SDS011;6899;51.546;6.912;2023-02-26T11:35:50;1.55;;;1.20;;
13651;SDS011;6899;51.546;6.912;2023-02-26T11:38:20;1.58;;;1.17;;
13651;SDS011;6899;51.546;6.912;2023-02-26T11:40:54;2.47;;;0.93;;
13651;SDS011;6899;51.546;6.912;2023-02-26T11:43:22;3.42;;;1.13;;
13651;SDS011;6899;51.546;6.912;2023-02-26T11:45:52;1.67;;;1.00;;
13651;SDS011;6899;51.546;6.912;2023-02-26T11:48:23;1.40;;;0.93;;
13651;SDS011;6899;51.546;6.912;2023-02-26T11:50:55;4.53;;;1.27;;
13651;SDS011;6899;51.546;6.912;2023-02-26T11:53:28;1.83;;;1.10;;
13651;SDS011;6899;51.546;6.912;2023-02-26T11:55:59;1.30;;;1.00;;
13651;SDS011;6899;51.546;6.912;2023-02-26T11:58:28;1.43;;;0.80;;
13651;SDS011;6899;51.546;6.912;2023-02-26T12:01:00;1.63;;;0.90;;
13651;SDS011;6899;51.546;6.912;2023-02-26T12:03:31;1.83;;;0.85;;
13651;SDS011;6899;51.546;6.912;2023-02-26T12:06:01;0.98;;;0.88;;
13651;SDS011;6899;51.546;6.912;2023-02-26T12:08:29;2.00;;;0.90;;
13651;SDS011;6899;51.546;6.912;2023-02-26T12:11:15;1.63;;;0.93;;
13651;SDS011;6899;51.546;6.912;2023-02-26T12:13:57;1.95;;;1.10;;
13651;SDS011;6899;51.546;6.912;2023-02-26T12:16:34;3.30;;;1.60;;
13651;SDS011;6899;51.546;6.912;2023-02-26T12:19:09;1.58;;;1.00;;
13651;SDS011;6899;51.546;6.912;2023-02-26T12:21:53;4.22;;;1.23;;
13651;SDS011;6899;51.546;6.912;2023-02-26T12:24:43;3.22;;;1.27;;
13651;SDS011;6899;51.546;6.912;2023-02-26T12:27:26;2.28;;;0.90;;
13651;SDS011;6899;51.546;6.912;2023-02-26T12:35:44;2.05;;;0.95;;
13651;SDS011;6899;51.546;6.912;2023-02-26T12:38:24;1.15;;;1.00;;
13651;SDS011;6899;51.546;6.912;2023-02-26T12:43:49;2.78;;;1.60;;
13651;SDS011;6899;51.546;6.912;2023-02-26T12:46:25;1.23;;;0.93;;
13651;SDS011;6899;51.546;6.912;2023-02-26T12:49:12;1.85;;;1.05;;
13651;SDS011;6899;51.546;6.912;2023-02-26T12:52:09;4.00;;;0.80;;
13651;SDS011;6899;51.546;6.912;2023-02-26T12:57:53;2.25;;;1.20;;
13651;SDS011;6899;51.546;6.912;2023-02-26T13:00:41;2.03;;;0.90;;
13651;SDS011;6899;51.546;6.912;2023-02-26T13:03:34;1.02;;;0.80;;
13651;SDS011;6899;51.546;6.912;2023-02-26T13:06:39;1.35;;;0.80;;
13651;SDS011;6899;51.546;6.912;2023-02-26T13:09:28;2.05;;;0.90;;
13651;SDS011;6899;51.546;6.912;2023-02-26T13:12:10;1.33;;;0.90;;
13651;SDS011;6899;51.546;6.912;2023-02-26T13:14:50;2.17;;;0.82;;
13651;SDS011;6899;51.546;6.912;2023-02-26T13:17:27;1.73;;;0.82;;
13651;SDS011;6899;51.546;6.912;2023-02-26T13:20:02;3.25;;;1.10;;
13651;SDS011;6899;51.546;6.912;2023-02-26T13:22:38;2.08;;;0.93;;
13651;SDS011;6899;51.546;6.912;2023-02-26T13:25:14;3.28;;;1.27;;
13651;SDS011;6899;51.546;6.912;2023-02-26T13:27:45;2.97;;;1.05;;
13651;SDS011;6899;51.546;6.912;2023-02-26T13:30:19;2.58;;;1.08;;
13651;SDS011;6899;51.546;6.912;2023-02-26T13:32:51;1.08;;;0.93;;
13651;SDS011;6899;51.546;6.912;2023-02-26T13:35:21;2.08;;;1.38;;
13651;SDS011;6899;51.546;6.912;2023-02-26T13:37:53;1.98;;;0.88;;
13651;SDS011;6899;51.546;6.912;2023-02-26T13:40:37;1.35;;;0.77;;
13651;SDS011;6899;51.546;6.912;2023-02-26T13:43:18;2.20;;;1.05;;
13651;SDS011;6899;51.546;6.912;2023-02-26T13:45:56;2.90;;;1.30;;
13651;SDS011;6899;51.546;6.912;2023-02-26T13:48:37;1.20;;;1.10;;
13651;SDS011;6899;51.546;6.912;2023-02-26T13:51:09;1.83;;;0.85;;
13651;SDS011;6899;51.546;6.912;2023-02-26T13:53:47;1.98;;;1.00;;
13651;SDS011;6899;51.546;6.912;2023-02-26T13:56:20;2.10;;;1.10;;
13651;SDS011;6899;51.546;6.912;2023-02-26T13:58:52;2.33;;;1.02;;
13651;SDS011;6899;51.546;6.912;2023-02-26T14:01:25;3.35;;;1.08;;
13651;SDS011;6899;51.546;6.912;2023-02-26T14:04:06;3.08;;;1.10;;
13651;SDS011;6899;51.546;6.912;2023-02-26T14:06:47;1.35;;;1.02;;
13651;SDS011;6899;51.546;6.912;2023-02-26T14:09:43;3.22;;;1.20;;
13651;SDS011;6899;51.546;6.912;2023-02-26T14:12:23;2.20;;;1.17;;
13651;SDS011;6899;51.546;6.912;2023-02-26T14:18:00;1.80;;;0.85;;
13651;SDS011;6899;51.546;6.912;2023-02-26T14:20:31;2.50;;;1.10;;
13651;SDS011;6899;51.546;6.912;2023-02-26T14:26:03;2.58;;;1.20;;
13651;SDS011;6899;51.546;6.912;2023-02-26T14:28:40;2.47;;;0.98;;
13651;SDS011;6899;51.546;6.912;2023-02-26T14:31:17;3.65;;;1.50;;
13651;SDS011;6899;51.546;6.912;2023-02-26T14:33:47;2.25;;;1.05;;
13651;SDS011;6899;51.546;6.912;2023-02-26T14:36:34;3.70;;;1.33;;
13651;SDS011;6899;51.546;6.912;2023-02-26T14:39:06;1.52;;;1.10;;
13651;SDS011;6899;51.546;6.912;2023-02-26T14:41:37;1.58;;;0.98;;
13651;SDS011;6899;51.546;6.912;2023-02-26T14:44:09;2.90;;;1.63;;
13651;SDS011;6899;51.546;6.912;2023-02-26T14:46:41;2.35;;;0.90;;
13651;SDS011;6899;51.546;6.912;2023-02-26T14:49:21;1.83;;;0.98;;
13651;SDS011;6899;51.546;6.912;2023-02-26T14:52:01;4.30;;;1.58;;
13651;SDS011;6899;51.546;6.912;2023-02-26T14:54:49;2.90;;;1.10;;
13651;SDS011;6899;51.546;6.912;2023-02-26T14:57:40;3.30;;;1.58;;
13651;SDS011;6899;51.546;6.912;2023-02-26T15:00:19;1.92;;;1.20;;
13651;SDS011;6899;51.546;6.912;2023-02-26T15:05:57;2.85;;;1.45;;
13651;SDS011;6899;51.546;6.912;2023-02-26T15:08:36;2.05;;;1.30;;
13651;SDS011;6899;51.546;6.912;2023-02-26T15:11:23;4.45;;;2.00;;
13651;SDS011;6899;51.546;6.912;2023-02-26T15:14:18;3.63;;;1.58;;
13651;SDS011;6899;51.546;6.912;2023-02-26T15:17:03;3.67;;;2.30;;
13651;SDS011;6899;51.546;6.912;2023-02-26T15:19:43;4.25;;;2.13;;
13651;SDS011;6899;51.546;6.912;2023-02-26T15:22:30;2.03;;;1.38;;
13651;SDS011;6899;51.546;6.912;2023-02-26T15:25:07;1.58;;;1.08;;
13651;SDS011;6899;51.546;6.912;2023-02-26T15:27:44;1.63;;;1.20;;
13651;SDS011;6899;51.546;6.912;2023-02-26T15:30:12;2.45;;;1.50;;
13651;SDS011;6899;51.546;6.912;2023-02-26T15:32:40;2.28;;;1.40;;
13651;SDS011;6899;51.546;6.912;2023-02-26T15:35:13;3.03;;;1.30;;
13651;SDS011;6899;51.546;6.912;2023-02-26T15:37:41;3.58;;;1.45;;
13651;SDS011;6899;51.546;6.912;2023-02-26T15:40:08;2.15;;;1.60;;
13651;SDS011;6899;51.546;6.912;2023-02-26T15:42:37;2.97;;;1.40;;
13651;SDS011;6899;51.546;6.912;2023-02-26T15:45:10;1.58;;;1.27;;
13651;SDS011;6899;51.546;6.912;2023-02-26T15:47:41;2.30;;;1.20;;
13651;SDS011;6899;51.546;6.912;2023-02-26T15:50:09;2.60;;;1.40;;
13651;SDS011;6899;51.546;6.912;2023-02-26T15:52:41;3.67;;;1.73;;
13651;SDS011;6899;51.546;6.912;2023-02-26T15:55:13;1.70;;;1.40;;
13651;SDS011;6899;51.546;6.912;2023-02-26T15:57:42;2.40;;;1.52;;